EDLI 250952Z 25008KT 9999 ///039 16/08 Q1015

Wind aktuell: 260° mit 9 kt

Wind 10 Minuten extrem:

200° bis 280° mit 3 kt bis 14 kt

Seitenwindkomponente: 5.0 kt

Wolkengrenze 1: 3900

Wolkengrenze 2: keine

Wolkengrenze 3: keine

Sichtweite: 20.000 Meter

Vorheriges Wetter:

Aktuelles Wetter:

Temperatur: 16.3 °C

Taupunkt: 7.6 °C

Luftfeuchtigkeit: 56%

QNH: 1015 hPa 

QFE: 998 hPa

Diese Daten werden automatisch ermittelt bzw. übertragen und sind nicht geprüft. Für die Richtigkeit wird daher keine Gewähr übernommen. Sie ersetzen im übrigen nicht die Flugwetterberatung. Alle Zeitangaben beziehen sich auf UTC. Die Seite wird einmal die Minute aktualisiert! Sollten Sie ein ältere Seite haben, so drücken Sie bitte auf den Reload Button Ihres Browsers!